createdAt,value
2024-03-05T00:02:04.248Z,5.40
2024-03-05T00:04:33.231Z,5.60
2024-03-05T00:07:01.432Z,5.00
2024-03-05T00:09:32.065Z,4.73
2024-03-05T00:12:01.635Z,5.57
2024-03-05T00:14:29.664Z,5.40
2024-03-05T00:16:57.836Z,5.38
2024-03-05T00:19:26.876Z,5.60
2024-03-05T00:21:54.917Z,6.10
2024-03-05T00:24:23.671Z,6.20
2024-03-05T00:26:51.719Z,6.53
2024-03-05T00:29:21.095Z,9.00
2024-03-05T00:31:49.167Z,7.03
2024-03-05T00:34:17.270Z,6.27
2024-03-05T00:36:45.645Z,5.83
2024-03-05T00:39:13.976Z,6.20
2024-03-05T00:41:42.218Z,6.03
2024-03-05T00:44:11.000Z,6.77
2024-03-05T00:46:42.107Z,6.57
2024-03-05T00:49:13.565Z,6.80
2024-03-05T00:51:41.870Z,6.97
2024-03-05T00:54:11.083Z,7.03
2024-03-05T00:56:39.394Z,6.67
2024-03-05T00:59:07.486Z,6.50
2024-03-05T01:01:35.828Z,7.07
2024-03-05T01:04:06.140Z,6.83
2024-03-05T01:06:34.216Z,5.87
2024-03-05T01:09:02.371Z,6.67
2024-03-05T01:11:31.557Z,5.90
2024-03-05T01:14:00.285Z,6.83
2024-03-05T01:16:28.484Z,5.73
2024-03-05T01:18:56.780Z,6.50
2024-03-05T01:21:26.157Z,6.83
2024-03-05T01:23:54.482Z,6.75
2024-03-05T01:26:23.010Z,6.30
2024-03-05T01:28:51.132Z,6.67
2024-03-05T01:31:19.854Z,7.10
2024-03-05T01:33:48.165Z,5.80
2024-03-05T01:36:17.079Z,6.70
2024-03-05T01:38:46.499Z,7.13
2024-03-05T01:41:14.946Z,7.70
2024-03-05T01:43:43.183Z,6.63
2024-03-05T01:46:15.196Z,6.03
2024-03-05T01:48:44.454Z,5.57
2024-03-05T01:51:14.217Z,5.90
2024-03-05T01:53:42.280Z,6.13
2024-03-05T01:56:12.076Z,6.47
2024-03-05T01:58:41.948Z,5.67
2024-03-05T02:01:10.353Z,6.20
2024-03-05T02:03:38.363Z,6.50
2024-03-05T02:06:09.421Z,6.77
2024-03-05T02:08:37.508Z,6.77
2024-03-05T02:11:05.941Z,6.93
2024-03-05T02:13:35.412Z,5.90
2024-03-05T02:16:03.513Z,6.40
2024-03-05T02:18:31.570Z,5.63
2024-03-05T02:21:03.061Z,7.37
2024-03-05T02:23:31.155Z,5.97
2024-03-05T02:25:59.783Z,6.80
2024-03-05T02:28:27.940Z,7.30
2024-03-05T02:30:56.352Z,7.93
2024-03-05T02:33:24.460Z,6.20
2024-03-05T02:35:59.589Z,6.65
2024-03-05T02:38:29.123Z,5.63
2024-03-05T02:40:58.112Z,6.20
2024-03-05T02:43:26.515Z,6.50
2024-03-05T02:45:54.782Z,6.55
2024-03-05T02:48:23.835Z,6.53
2024-03-05T02:50:51.960Z,6.37
2024-03-05T02:53:19.979Z,6.77
2024-03-05T02:55:49.394Z,7.07
2024-03-05T02:58:18.102Z,7.10
2024-03-05T03:00:46.178Z,8.03
2024-03-05T03:03:15.257Z,7.13
2024-03-05T03:05:43.449Z,7.77
2024-03-05T03:08:12.816Z,6.83
2024-03-05T03:10:40.906Z,7.27
2024-03-05T03:13:11.135Z,7.53
2024-03-05T03:15:39.178Z,7.70
2024-03-05T03:18:07.691Z,6.97
2024-03-05T03:20:36.057Z,7.03
2024-03-05T03:23:04.404Z,6.53
2024-03-05T03:25:35.650Z,6.90
2024-03-05T03:28:05.796Z,6.90
2024-03-05T03:30:35.196Z,8.03
2024-03-05T03:33:05.608Z,6.87
2024-03-05T03:35:33.894Z,7.63
2024-03-05T03:38:02.213Z,8.70
2024-03-05T03:40:34.573Z,6.50
2024-03-05T03:43:02.763Z,7.70
2024-03-05T03:45:30.791Z,7.87
2024-03-05T03:48:00.444Z,7.07
2024-03-05T03:50:28.590Z,6.83
2024-03-05T03:52:56.624Z,7.63
2024-03-05T03:55:24.755Z,7.30
2024-03-05T03:57:52.764Z,8.07
2024-03-05T04:00:22.529Z,7.33
2024-03-05T04:02:50.620Z,7.27
2024-03-05T04:05:20.094Z,8.03
2024-03-05T04:07:48.203Z,6.77
2024-03-05T04:10:16.910Z,7.57
2024-03-05T04:12:46.134Z,9.13
2024-03-05T04:15:14.419Z,9.20
2024-03-05T04:17:42.697Z,11.30
2024-03-05T04:20:12.194Z,10.90
2024-03-05T04:22:41.972Z,10.43
2024-03-05T04:25:10.747Z,10.97
2024-03-05T04:27:46.792Z,10.90
2024-03-05T04:30:15.765Z,9.50
2024-03-05T04:32:56.270Z,9.40
2024-03-05T04:35:28.854Z,7.90
2024-03-05T04:37:59.307Z,7.67
2024-03-05T04:40:27.693Z,7.73
2024-03-05T04:42:56.839Z,6.83
2024-03-05T04:45:26.321Z,7.60
2024-03-05T04:47:54.614Z,7.63
2024-03-05T04:50:23.068Z,7.40
2024-03-05T04:52:52.206Z,6.83
2024-03-05T04:55:23.223Z,8.33
2024-03-05T04:57:52.297Z,8.13
2024-03-05T05:00:25.502Z,7.07
2024-03-05T05:02:54.381Z,7.90
2024-03-05T05:05:26.389Z,7.27
2024-03-05T05:07:57.521Z,7.93
2024-03-05T05:10:27.238Z,8.53
2024-03-05T05:12:55.664Z,8.47
2024-03-05T05:15:24.635Z,7.57
2024-03-05T05:17:52.788Z,8.13
2024-03-05T05:20:20.939Z,7.40
2024-03-05T05:22:48.972Z,7.27
2024-03-05T05:25:20.658Z,8.30
2024-03-05T05:27:50.582Z,7.87
2024-03-05T05:30:20.115Z,7.50
2024-03-05T05:32:49.108Z,8.50
2024-03-05T05:35:17.565Z,8.67
2024-03-05T05:37:46.134Z,9.80
2024-03-05T05:40:20.823Z,8.70
2024-03-05T05:42:51.712Z,8.67
2024-03-05T05:45:22.834Z,7.63
2024-03-05T05:47:55.467Z,8.17
2024-03-05T05:50:25.144Z,9.23
2024-03-05T05:52:55.281Z,8.37
2024-03-05T05:55:26.540Z,8.57
2024-03-05T05:57:57.987Z,8.03
2024-03-05T06:00:37.208Z,8.43
2024-03-05T06:03:07.992Z,8.27
2024-03-05T06:05:37.450Z,8.07
2024-03-05T06:08:09.049Z,7.30
2024-03-05T06:10:37.096Z,8.53
2024-03-05T06:13:07.988Z,8.20
2024-03-05T06:15:38.255Z,7.53
2024-03-05T06:18:07.491Z,7.93
2024-03-05T06:20:35.751Z,6.93
2024-03-05T06:23:03.892Z,7.80
2024-03-05T06:25:32.220Z,7.37
2024-03-05T06:28:03.262Z,7.60
2024-03-05T06:30:34.955Z,5.80
2024-03-05T06:33:02.999Z,7.10
2024-03-05T06:35:32.713Z,6.17
2024-03-05T06:38:02.065Z,6.13
2024-03-05T06:40:40.538Z,6.63
2024-03-05T06:43:14.389Z,7.03
2024-03-05T06:45:44.714Z,6.17
2024-03-05T06:48:17.589Z,6.33
2024-03-05T06:50:53.176Z,5.83
2024-03-05T06:53:38.713Z,5.33
2024-03-05T06:56:25.529Z,6.27
2024-03-05T06:58:54.400Z,6.17
2024-03-05T07:01:36.042Z,6.30
2024-03-05T07:04:15.348Z,5.97
2024-03-05T07:06:45.360Z,5.23
2024-03-05T07:09:31.992Z,5.30
2024-03-05T07:12:00.816Z,5.00
2024-03-05T07:14:29.105Z,5.45
2024-03-05T07:16:59.546Z,6.40
2024-03-05T07:19:28.237Z,6.50
2024-03-05T07:21:56.297Z,6.00
2024-03-05T07:24:24.314Z,6.43
2024-03-05T07:27:00.598Z,6.20
2024-03-05T07:29:32.540Z,6.13
2024-03-05T07:32:02.059Z,5.70
2024-03-05T07:34:30.314Z,4.53
2024-03-05T07:36:58.386Z,5.80
2024-03-05T07:39:26.677Z,6.13
2024-03-05T07:41:54.688Z,6.07
2024-03-05T07:44:24.269Z,6.10
2024-03-05T07:46:52.372Z,5.53
2024-03-05T07:49:21.865Z,6.60
2024-03-05T07:51:50.033Z,6.43
2024-03-05T07:54:18.602Z,5.87
2024-03-05T07:56:46.582Z,6.03
2024-03-05T07:59:14.680Z,5.63
2024-03-05T08:01:43.050Z,5.90
2024-03-05T08:04:11.129Z,5.30
2024-03-05T08:06:40.915Z,4.90
2024-03-05T08:09:09.189Z,5.03
2024-03-05T08:11:37.439Z,5.27
2024-03-05T08:14:08.564Z,4.50
2024-03-05T08:16:38.040Z,7.50
2024-03-05T08:19:06.049Z,5.50
2024-03-05T08:21:35.781Z,4.72
2024-03-05T08:24:06.485Z,4.57
2024-03-05T08:26:34.578Z,4.03
2024-03-05T08:29:01.693Z,4.13
2024-03-05T08:31:30.064Z,3.27
2024-03-05T08:33:58.473Z,3.87
2024-03-05T08:36:28.655Z,3.90
2024-03-05T08:38:56.697Z,3.07
2024-03-05T08:41:26.060Z,3.50
2024-03-05T08:43:54.372Z,3.93
2024-03-05T08:46:22.468Z,3.00
2024-03-05T08:48:50.525Z,3.13
2024-03-05T08:51:19.844Z,6.23
2024-03-05T08:53:47.866Z,12.50
2024-03-05T08:56:15.922Z,3.80
2024-03-05T08:58:45.288Z,3.53
2024-03-05T09:01:14.361Z,3.07
2024-03-05T09:03:42.802Z,3.20
2024-03-05T09:06:10.883Z,2.80
2024-03-05T09:08:40.241Z,3.10
2024-03-05T09:11:09.440Z,3.10
2024-03-05T09:13:37.522Z,2.70
2024-03-05T09:16:07.968Z,2.17
2024-03-05T09:18:36.053Z,2.47
2024-03-05T09:21:04.093Z,2.43
2024-03-05T09:23:32.163Z,2.40
2024-03-05T09:26:00.357Z,2.97
2024-03-05T09:28:28.425Z,2.33
2024-03-05T09:30:57.829Z,1.80
2024-03-05T09:33:27.587Z,2.33
2024-03-05T09:35:55.703Z,1.98
2024-03-05T09:38:23.983Z,1.80
2024-03-05T09:40:53.225Z,1.97
2024-03-05T09:43:24.058Z,0.93
2024-03-05T09:45:53.766Z,12.20
2024-03-05T09:48:23.961Z,1.50
2024-03-05T09:50:55.168Z,1.53
2024-03-05T09:53:23.259Z,1.80
2024-03-05T09:55:54.889Z,1.50
2024-03-05T09:58:37.894Z,1.43
2024-03-05T10:01:07.857Z,1.05
2024-03-05T10:03:38.214Z,1.40
2024-03-05T10:06:09.500Z,1.70
2024-03-05T10:08:37.565Z,1.30
2024-03-05T10:11:07.710Z,1.60
2024-03-05T10:13:38.129Z,1.40
2024-03-05T10:16:15.745Z,1.40
2024-03-05T10:18:44.007Z,1.63
2024-03-05T10:21:19.942Z,1.83
2024-03-05T10:23:50.332Z,1.77
2024-03-05T10:26:22.923Z,1.67
2024-03-05T10:28:52.188Z,1.20
2024-03-05T10:31:24.586Z,1.60
2024-03-05T10:33:55.373Z,1.70
2024-03-05T10:36:29.553Z,1.48
2024-03-05T10:38:58.498Z,2.40
2024-03-05T10:41:39.144Z,2.00
2024-03-05T10:44:16.288Z,1.55
2024-03-05T10:46:47.642Z,1.50
2024-03-05T10:49:18.261Z,1.63
2024-03-05T10:51:49.564Z,1.48
2024-03-05T10:54:18.933Z,1.38
2024-03-05T10:56:47.546Z,1.50
2024-03-05T10:59:32.555Z,1.60
2024-03-05T11:02:01.572Z,1.00
2024-03-05T11:04:33.240Z,1.33
2024-03-05T11:07:07.029Z,1.15
2024-03-05T11:09:36.841Z,1.48
2024-03-05T11:12:09.472Z,1.40
2024-03-05T11:14:38.692Z,1.63
2024-03-05T11:17:11.178Z,1.40
2024-03-05T11:19:41.707Z,1.00
2024-03-05T11:22:24.738Z,1.50
2024-03-05T11:24:56.689Z,1.50
2024-03-05T11:27:25.992Z,1.50
2024-03-05T11:30:07.143Z,1.63
2024-03-05T11:32:36.407Z,1.58
2024-03-05T11:35:04.611Z,1.25
2024-03-05T11:37:53.685Z,1.17
2024-03-05T11:40:30.306Z,0.90
2024-03-05T11:42:58.776Z,0.90
2024-03-05T11:45:45.486Z,1.00
2024-03-05T11:48:16.340Z,0.70
2024-03-05T11:50:44.508Z,1.02
2024-03-05T11:53:15.503Z,0.95
2024-03-05T11:55:44.076Z,1.23
2024-03-05T11:58:12.796Z,1.02
2024-03-05T12:00:40.902Z,0.80
2024-03-05T12:03:09.519Z,0.90
2024-03-05T12:05:43.220Z,1.00
2024-03-05T12:08:11.883Z,1.38
2024-03-05T12:10:41.788Z,0.80
2024-03-05T12:13:11.462Z,0.82
2024-03-05T12:15:42.089Z,0.98
2024-03-05T12:18:12.169Z,1.00
2024-03-05T12:20:43.321Z,1.20
2024-03-05T12:23:12.117Z,0.85
2024-03-05T12:25:41.572Z,1.23
2024-03-05T12:28:13.926Z,0.70
2024-03-05T12:30:42.105Z,0.60
2024-03-05T12:33:11.018Z,1.20
2024-03-05T12:35:40.492Z,0.90
2024-03-05T12:38:08.567Z,1.15
2024-03-05T12:40:36.815Z,1.00
2024-03-05T12:43:11.348Z,1.20
2024-03-05T12:45:39.992Z,1.35
2024-03-05T12:48:10.310Z,1.30
2024-03-05T12:50:40.515Z,1.10
2024-03-05T12:53:10.864Z,1.30
2024-03-05T12:55:39.277Z,0.85
2024-03-05T12:58:10.140Z,0.93
2024-03-05T13:00:39.658Z,1.42
2024-03-05T13:03:26.532Z,0.88
2024-03-05T13:05:54.696Z,0.93
2024-03-05T13:08:36.179Z,1.27
2024-03-05T13:11:07.620Z,1.35
2024-03-05T13:13:37.225Z,0.82
2024-03-05T13:16:06.533Z,0.85
2024-03-05T13:18:50.747Z,0.60
2024-03-05T13:21:25.905Z,0.80
2024-03-05T13:23:53.949Z,0.90
2024-03-05T13:26:23.678Z,1.15
2024-03-05T13:28:55.192Z,0.95
2024-03-05T13:31:23.345Z,0.88
2024-03-05T13:33:55.746Z,1.08
2024-03-05T13:36:25.059Z,0.80
2024-03-05T13:38:53.328Z,0.90
2024-03-05T13:41:22.377Z,1.10
2024-03-05T13:43:50.559Z,0.80
2024-03-05T13:46:21.057Z,0.90
2024-03-05T13:48:49.120Z,1.00
2024-03-05T13:51:25.340Z,1.10
2024-03-05T13:53:53.381Z,0.90
2024-03-05T13:56:21.573Z,0.93
2024-03-05T13:58:49.626Z,0.93
2024-03-05T14:01:20.443Z,0.70
2024-03-05T14:03:48.702Z,1.13
2024-03-05T14:06:17.415Z,1.13
2024-03-05T14:08:45.553Z,0.52
2024-03-05T14:11:20.944Z,0.82
2024-03-05T14:13:49.673Z,0.50
2024-03-05T14:16:19.104Z,0.85
2024-03-05T14:18:49.719Z,0.80
2024-03-05T14:21:17.762Z,1.08
2024-03-05T14:23:45.809Z,0.75
2024-03-05T14:26:18.092Z,0.60
2024-03-05T14:28:47.196Z,0.70
2024-03-05T14:31:15.254Z,0.80
2024-03-05T14:33:43.891Z,0.60
2024-03-05T14:36:15.193Z,0.68
2024-03-05T14:38:44.730Z,1.02
2024-03-05T14:41:14.080Z,0.40
2024-03-05T14:43:42.330Z,0.57
2024-03-05T14:46:10.490Z,0.90
2024-03-05T14:48:41.123Z,0.80
2024-03-05T14:51:12.144Z,1.00
2024-03-05T14:53:41.635Z,0.80
2024-03-05T14:56:10.004Z,0.70
2024-03-05T14:58:40.273Z,0.70
2024-03-05T15:01:08.721Z,0.95
2024-03-05T15:03:48.747Z,0.90
2024-03-05T15:06:18.758Z,0.77
2024-03-05T15:08:50.063Z,0.90
2024-03-05T15:11:18.520Z,0.70
2024-03-05T15:13:46.731Z,0.70
2024-03-05T15:16:15.058Z,0.80
2024-03-05T15:18:43.040Z,0.85
2024-03-05T15:21:15.257Z,0.85
2024-03-05T15:23:43.615Z,0.70
2024-03-05T15:26:13.112Z,0.88
2024-03-05T15:28:42.213Z,1.00
2024-03-05T15:31:11.094Z,0.98
